Time;durP1;ratioP1;P1;durP2;ratioP2;P2;SDS_P1;SDS_P2;PMS_P1;PMS_P2;Temp;Humidity;BMP_temperature;BMP_pressure;BME280_temperature;BME280_humidity;BME280_pressure;Samples;Min_cycle;Max_cycle;Signal;HPM_P1;HPM_P2
2022/01/06 00:00:58;;;;;;;1.48;1.38;;;4.70;99.90;;;;;;5037851;28;20201;-66
2022/01/06 00:03:26;;;;;;;0.90;0.90;;;4.80;99.90;;;;;;5043320;28;20227;-66
2022/01/06 00:05:53;;;;;;;1.25;1.15;;;4.70;99.90;;;;;;5050234;28;20678;-65
2022/01/06 00:08:21;;;;;;;1.17;1.10;;;4.80;99.90;;;;;;5044495;28;20251;-66
2022/01/06 00:10:49;;;;;;;1.02;1.02;;;4.80;99.90;;;;;;5036762;28;20204;-66
2022/01/06 00:13:20;;;;;;;1.30;1.20;;;4.70;99.90;;;;;;5035598;28;20221;-66
2022/01/06 00:16:03;;;;;;;1.10;1.08;;;4.80;99.90;;;;;;5037929;28;20192;-67
2022/01/06 00:24:08;;;;;;;0.95;0.95;;;4.70;99.90;;;;;;5036235;28;20231;-65
2022/01/06 00:26:35;;;;;;;1.40;1.20;;;4.80;99.90;;;;;;5032535;28;20543;-66
2022/01/06 00:29:02;;;;;;;1.00;1.00;;;4.80;99.90;;;;;;5032552;28;20299;-65
2022/01/06 00:31:29;;;;;;;1.33;1.23;;;4.80;99.90;;;;;;5043307;28;20212;-63
2022/01/06 00:33:56;;;;;;;1.20;1.10;;;4.60;99.90;;;;;;5040074;28;20240;-65
2022/01/06 00:36:23;;;;;;;1.00;1.00;;;4.80;99.90;;;;;;5031968;28;20206;-66
2022/01/06 00:38:50;;;;;;;1.00;1.00;;;4.80;99.90;;;;;;5031968;28;20211;-66
2022/01/06 00:41:18;;;;;;;1.15;1.13;;;4.80;99.90;;;;;;5031743;28;20282;-66
2022/01/06 00:43:45;;;;;;;1.10;1.10;;;4.90;99.90;;;;;;5048804;23;20271;-63
2022/01/06 00:46:12;;;;;;;1.00;1.00;;;4.80;99.90;;;;;;5035643;28;20282;-61
2022/01/06 00:48:39;;;;;;;1.00;1.00;;;4.80;99.90;;;;;;5037157;28;20287;-62
2022/01/06 00:51:08;;;;;;;1.00;1.00;;;4.90;99.90;;;;;;5037048;28;20287;-61
2022/01/06 00:53:35;;;;;;;1.10;1.10;;;4.90;99.90;;;;;;5036024;28;20607;-61
2022/01/06 00:56:02;;;;;;;1.00;1.00;;;4.90;99.90;;;;;;5035831;28;20304;-63
2022/01/06 00:58:30;;;;;;;1.20;1.10;;;4.80;99.90;;;;;;5035990;28;20307;-63
2022/01/06 01:00:58;;;;;;;1.00;1.00;;;4.80;99.90;;;;;;5035699;28;20299;-61
2022/01/06 01:03:27;;;;;;;1.08;1.08;;;4.80;99.90;;;;;;5035404;28;20240;-62
2022/01/06 01:05:55;;;;;;;1.00;1.00;;;4.70;99.90;;;;;;5035584;28;20204;-62
2022/01/06 01:08:23;;;;;;;0.98;0.98;;;4.60;99.90;;;;;;5035785;28;20215;-61
2022/01/06 01:10:52;;;;;;;1.30;1.20;;;4.60;99.90;;;;;;5036023;28;20255;-61
2022/01/06 01:13:27;;;;;;;0.82;0.82;;;4.70;99.90;;;;;;5036630;28;20225;-61
2022/01/06 01:15:59;;;;;;;1.27;1.17;;;4.70;99.90;;;;;;5036142;28;20204;-63
2022/01/06 01:18:26;;;;;;;1.00;1.00;;;4.80;99.90;;;;;;5035847;28;20282;-63
2022/01/06 01:20:54;;;;;;;1.20;1.10;;;4.90;99.90;;;;;;5035401;28;20648;-64
2022/01/06 01:23:22;;;;;;;1.00;1.00;;;4.90;99.90;;;;;;5035053;28;20238;-62
2022/01/06 01:25:49;;;;;;;1.08;1.08;;;4.90;99.90;;;;;;5034932;28;20752;-62
2022/01/06 01:28:16;;;;;;;1.00;1.00;;;5.00;99.90;;;;;;5035032;28;20774;-64
2022/01/06 01:31:00;;;;;;;0.95;0.95;;;4.90;99.90;;;;;;5036055;28;20615;-61
2022/01/06 01:33:30;;;;;;;1.10;1.10;;;4.90;99.90;;;;;;5035785;28;20232;-61
2022/01/06 01:35:57;;;;;;;1.20;1.20;;;4.90;99.90;;;;;;5034819;28;20295;-62
2022/01/06 01:38:24;;;;;;;1.10;1.10;;;4.90;99.90;;;;;;5035075;28;20405;-62
2022/01/06 01:40:51;;;;;;;1.20;1.07;;;5.00;99.90;;;;;;5034461;28;20227;-62
2022/01/06 01:43:18;;;;;;;1.07;1.07;;;5.00;99.90;;;;;;5034362;28;20320;-61
2022/01/06 01:45:46;;;;;;;1.10;1.10;;;5.00;99.90;;;;;;5034457;28;20211;-64
2022/01/06 01:48:21;;;;;;;1.03;1.03;;;5.00;99.90;;;;;;5034756;28;20228;-61
2022/01/06 01:50:49;;;;;;;1.07;1.07;;;5.00;99.90;;;;;;5039808;28;20208;-62
2022/01/06 01:53:16;;;;;;;1.00;1.00;;;5.10;99.90;;;;;;5052202;28;20243;-62
2022/01/06 01:55:43;;;;;;;1.10;1.10;;;5.10;99.90;;;;;;5052065;28;20240;-62
2022/01/06 01:58:11;;;;;;;0.90;0.90;;;5.10;99.90;;;;;;5051778;28;20207;-63
2022/01/06 02:00:38;;;;;;;1.15;1.15;;;5.00;99.90;;;;;;5052862;28;20204;-64
2022/01/06 02:03:06;;;;;;;1.10;1.10;;;5.00;99.90;;;;;;5050749;28;20221;-62
2022/01/06 02:05:33;;;;;;;0.97;0.97;;;4.90;99.90;;;;;;5037292;28;20213;-62
2022/01/06 02:08:01;;;;;;;1.35;1.20;;;4.90;99.90;;;;;;5033851;28;20256;-62
2022/01/06 02:10:29;;;;;;;1.10;1.00;;;4.90;99.90;;;;;;5034408;28;20403;-63
2022/01/06 02:12:59;;;;;;;1.00;1.00;;;4.90;99.90;;;;;;5033643;28;20311;-62
2022/01/06 02:15:26;;;;;;;0.90;0.90;;;4.90;99.90;;;;;;5033941;28;20704;-63
2022/01/06 02:17:53;;;;;;;1.00;1.00;;;5.00;99.90;;;;;;5034111;28;20640;-63
2022/01/06 02:20:23;;;;;;;1.10;1.10;;;5.00;99.90;;;;;;5034166;28;20296;-61
2022/01/06 02:22:51;;;;;;;1.20;1.10;;;5.10;99.90;;;;;;5033685;28;20314;-62
2022/01/06 02:25:20;;;;;;;1.20;1.15;;;5.10;99.90;;;;;;5033781;28;20207;-62
2022/01/06 02:27:49;;;;;;;0.93;0.93;;;5.10;99.90;;;;;;5033414;28;20235;-61
2022/01/06 02:30:17;;;;;;;1.03;1.03;;;5.00;99.90;;;;;;5034443;28;20590;-61
2022/01/06 02:32:44;;;;;;;1.00;1.00;;;5.00;99.90;;;;;;5033119;28;20320;-64
2022/01/06 02:35:13;;;;;;;1.02;1.02;;;5.00;99.90;;;;;;5033763;28;20232;-61
2022/01/06 02:37:42;;;;;;;0.97;0.97;;;4.90;99.90;;;;;;5033737;28;20619;-63
2022/01/06 02:40:10;;;;;;;1.10;1.00;;;4.80;99.90;;;;;;5033667;28;20622;-62
2022/01/06 02:42:42;;;;;;;1.13;1.13;;;4.80;99.90;;;;;;5032998;28;20737;-61
2022/01/06 02:45:10;;;;;;;1.10;1.10;;;4.80;99.90;;;;;;5033444;28;20232;-63
2022/01/06 02:47:37;;;;;;;1.13;1.10;;;4.70;99.90;;;;;;5033447;28;20228;-61
2022/01/06 02:50:05;;;;;;;1.00;1.00;;;4.70;99.90;;;;;;5034104;28;20230;-62
2022/01/06 02:52:32;;;;;;;1.00;1.00;;;4.70;99.90;;;;;;5033216;28;20307;-63
2022/01/06 02:55:00;;;;;;;1.13;1.10;;;4.60;99.90;;;;;;5033211;28;20211;-61
2022/01/06 02:57:27;;;;;;;1.30;1.20;;;4.60;99.90;;;;;;5032520;28;20576;-61
2022/01/06 02:59:54;;;;;;;1.15;1.15;;;4.60;99.90;;;;;;5033229;28;20247;-62
2022/01/06 03:02:21;;;;;;;0.87;0.87;;;4.60;99.90;;;;;;5032627;28;20208;-63
2022/01/06 03:04:48;;;;;;;1.10;1.10;;;4.50;99.90;;;;;;5032845;28;20295;-63
2022/01/06 03:07:15;;;;;;;1.38;1.35;;;4.70;99.90;;;;;;5032640;28;20216;-63
2022/01/06 03:09:43;;;;;;;1.10;1.00;;;4.50;99.90;;;;;;5033106;28;20291;-62
2022/01/06 03:12:22;;;;;;;1.15;1.15;;;4.50;99.90;;;;;;5032481;28;20251;-61
2022/01/06 03:14:50;;;;;;;1.00;1.00;;;4.50;99.90;;;;;;5032974;28;20199;-62
2022/01/06 03:17:17;;;;;;;1.00;1.00;;;4.50;99.90;;;;;;5032883;28;20743;-62
2022/01/06 03:19:44;;;;;;;0.90;0.90;;;4.60;99.90;;;;;;5034020;28;20302;-62
2022/01/06 03:22:11;;;;;;;1.15;1.15;;;4.60;99.90;;;;;;5032494;28;20238;-62
2022/01/06 03:24:38;;;;;;;1.20;1.15;;;4.70;99.90;;;;;;5032879;28;20240;-62
2022/01/06 03:27:05;;;;;;;1.15;1.15;;;4.60;99.90;;;;;;5032823;28;20250;-62
2022/01/06 03:29:33;;;;;;;0.90;0.90;;;4.50;99.90;;;;;;5032542;28;20296;-62
2022/01/06 03:32:00;;;;;;;1.00;1.00;;;4.50;99.90;;;;;;5032729;28;21058;-62
2022/01/06 03:34:30;;;;;;;0.80;0.80;;;4.50;99.90;;;;;;5033154;28;20315;-62
2022/01/06 03:36:57;;;;;;;0.90;0.90;;;4.50;99.90;;;;;;5032979;28;20211;-61
2022/01/06 03:39:24;;;;;;;0.82;0.82;;;4.50;99.90;;;;;;5032468;28;20300;-61
2022/01/06 03:41:51;;;;;;;1.10;1.10;;;4.50;99.90;;;;;;5034965;28;20240;-63
2022/01/06 03:44:18;;;;;;;0.90;0.90;;;4.60;99.90;;;;;;5044157;28;20260;-61
2022/01/06 03:46:46;;;;;;;0.90;0.90;;;4.60;99.90;;;;;;5045120;28;20239;-61
2022/01/06 03:49:13;;;;;;;1.00;1.00;;;4.60;99.90;;;;;;5039278;28;20235;-60
2022/01/06 03:51:40;;;;;;;0.80;0.80;;;4.60;99.90;;;;;;5041504;28;20223;-62
2022/01/06 03:54:07;;;;;;;1.08;1.08;;;4.70;99.90;;;;;;5045196;28;20235;-63
2022/01/06 03:56:34;;;;;;;0.95;0.95;;;4.60;99.90;;;;;;5034390;28;20236;-61
2022/01/06 03:59:01;;;;;;;0.90;0.90;;;4.70;99.90;;;;;;5033561;28;20240;-64
2022/01/06 04:01:28;;;;;;;0.97;0.97;;;4.80;99.90;;;;;;5033177;28;20262;-62
2022/01/06 04:03:56;;;;;;;0.82;0.82;;;4.70;99.90;;;;;;5032778;28;20259;-61
2022/01/06 04:06:23;;;;;;;0.80;0.80;;;4.70;99.90;;;;;;5036263;28;20277;-63
2022/01/06 04:08:50;;;;;;;0.80;0.80;;;4.80;99.90;;;;;;5048015;28;20228;-64
2022/01/06 04:11:17;;;;;;;0.90;0.90;;;4.80;99.90;;;;;;5049580;28;20268;-62
2022/01/06 04:13:44;;;;;;;0.80;0.80;;;4.80;99.90;;;;;;5049238;28;20232;-63
2022/01/06 04:16:14;;;;;;;0.90;0.90;;;4.70;99.90;;;;;;5037551;28;20212;-63
2022/01/06 04:18:41;;;;;;;0.80;0.80;;;4.60;99.90;;;;;;5032966;28;20181;-61
2022/01/06 04:21:10;;;;;;;0.80;0.80;;;4.60;99.90;;;;;;5036870;28;20212;-61
2022/01/06 04:23:37;;;;;;;0.90;0.80;;;4.60;99.90;;;;;;5036009;28;20251;-61
2022/01/06 04:26:04;;;;;;;0.80;0.80;;;4.60;99.90;;;;;;5034572;28;20204;-63
2022/01/06 04:28:31;;;;;;;0.80;0.80;;;4.60;99.90;;;;;;5034541;28;20286;-62
2022/01/06 04:30:58;;;;;;;0.60;0.60;;;4.60;99.90;;;;;;5034085;28;20212;-63
2022/01/06 04:33:26;;;;;;;0.70;0.70;;;4.60;99.90;;;;;;5032363;28;20315;-62
2022/01/06 04:35:53;;;;;;;0.73;0.73;;;4.60;99.90;;;;;;5032349;28;20695;-63
2022/01/06 04:38:22;;;;;;;0.73;0.73;;;4.50;99.90;;;;;;5032258;28;20204;-63
2022/01/06 04:40:50;;;;;;;0.70;0.70;;;4.50;99.90;;;;;;5033056;28;20211;-63
2022/01/06 04:43:17;;;;;;;0.70;0.70;;;4.50;99.90;;;;;;5031627;28;20228;-62
2022/01/06 04:45:44;;;;;;;0.80;0.80;;;4.50;99.90;;;;;;5031867;28;20630;-64
2022/01/06 04:48:11;;;;;;;0.70;0.70;;;4.50;99.90;;;;;;5031871;28;20224;-63
2022/01/06 04:50:38;;;;;;;0.70;0.70;;;4.50;99.90;;;;;;5031951;28;20331;-63
2022/01/06 04:53:05;;;;;;;0.80;0.80;;;4.50;99.90;;;;;;5031315;28;20307;-63
2022/01/06 04:55:33;;;;;;;0.65;0.65;;;4.50;99.90;;;;;;5032476;28;20299;-62
2022/01/06 04:58:01;;;;;;;0.70;0.70;;;4.60;99.90;;;;;;5034428;28;20584;-63
2022/01/06 05:00:28;;;;;;;0.70;0.70;;;4.50;99.90;;;;;;5034094;28;20315;-61
2022/01/06 05:02:55;;;;;;;0.53;0.53;;;4.50;99.90;;;;;;5033701;28;20232;-62
2022/01/06 05:05:22;;;;;;;0.60;0.60;;;4.50;99.90;;;;;;5032409;28;20235;-62
2022/01/06 05:07:49;;;;;;;0.60;0.60;;;4.50;99.90;;;;;;5033231;28;20232;-62
2022/01/06 05:10:16;;;;;;;0.60;0.60;;;4.50;99.90;;;;;;5034764;28;20205;-62
2022/01/06 05:12:46;;;;;;;0.75;0.75;;;4.60;99.90;;;;;;5032781;28;20316;-62
2022/01/06 05:15:14;;;;;;;0.70;0.70;;;4.50;99.90;;;;;;5032351;28;20680;-63
2022/01/06 05:17:42;;;;;;;0.60;0.60;;;4.50;99.90;;;;;;5035290;28;20239;-64
2022/01/06 05:20:10;;;;;;;0.73;0.73;;;4.50;99.90;;;;;;5032311;28;20209;-64
2022/01/06 05:22:43;;;;;;;0.80;0.80;;;4.40;99.90;;;;;;5035335;28;20266;-60
2022/01/06 05:25:10;;;;;;;0.63;0.63;;;4.50;99.90;;;;;;5045662;28;20204;-61
2022/01/06 05:27:37;;;;;;;0.70;0.70;;;4.50;99.90;;;;;;5035236;28;20228;-62
2022/01/06 05:30:07;;;;;;;0.70;0.70;;;4.50;99.90;;;;;;5034189;28;20247;-61
2022/01/06 05:32:34;;;;;;;0.60;0.60;;;4.50;99.90;;;;;;5029537;28;20770;-62
2022/01/06 05:35:01;;;;;;;0.80;0.80;;;4.50;99.90;;;;;;5022845;28;20217;-62
2022/01/06 05:37:28;;;;;;;0.65;0.65;;;4.60;99.90;;;;;;5026309;28;20237;-62
2022/01/06 05:39:55;;;;;;;0.60;0.60;;;4.60;99.90;;;;;;5028582;28;20292;-64
2022/01/06 05:42:22;;;;;;;0.80;0.80;;;4.50;99.90;;;;;;5029094;28;20677;-62
2022/01/06 05:44:49;;;;;;;0.52;0.52;;;4.40;99.90;;;;;;5017162;28;20276;-61
2022/01/06 05:47:17;;;;;;;0.70;0.70;;;4.40;99.90;;;;;;5015647;28;20243;-62
2022/01/06 05:49:45;;;;;;;0.53;0.53;;;4.50;99.90;;;;;;5015373;28;20288;-63
2022/01/06 05:52:12;;;;;;;0.60;0.60;;;4.40;99.90;;;;;;5014386;28;20206;-62
2022/01/06 05:54:39;;;;;;;0.80;0.80;;;4.40;99.90;;;;;;5014902;28;20202;-62
2022/01/06 05:57:06;;;;;;;0.80;0.80;;;4.40;99.90;;;;;;5014951;28;20232;-62
2022/01/06 05:59:33;;;;;;;0.70;0.70;;;4.40;99.90;;;;;;5014127;28;20208;-61
2022/01/06 06:02:01;;;;;;;0.80;0.80;;;4.40;99.90;;;;;;5014390;28;20213;-62
2022/01/06 06:04:29;;;;;;;0.60;0.60;;;4.40;99.90;;;;;;5014697;28;20359;-62
2022/01/06 06:06:56;;;;;;;0.65;0.65;;;4.40;99.90;;;;;;5014817;28;20209;-62
2022/01/06 06:09:23;;;;;;;0.80;0.80;;;4.40;99.90;;;;;;5014569;28;20267;-61
2022/01/06 06:11:50;;;;;;;0.63;0.63;;;4.40;99.90;;;;;;5014222;28;20205;-63
2022/01/06 06:14:17;;;;;;;1.20;0.70;;;4.50;99.90;;;;;;5014362;28;20257;-62
2022/01/06 06:16:44;;;;;;;0.80;0.80;;;4.50;99.90;;;;;;5014546;28;20681;-62
2022/01/06 06:19:10;;;;;;;0.90;0.90;;;4.60;99.90;;;;;;5016736;28;20234;-61
2022/01/06 06:21:39;;;;;;;0.70;0.70;;;4.70;99.90;;;;;;5017427;28;20293;-61
2022/01/06 06:24:06;;;;;;;0.80;0.80;;;4.70;99.90;;;;;;5018202;28;20929;-62
2022/01/06 06:26:33;;;;;;;1.00;1.00;;;4.60;99.90;;;;;;5018042;28;20205;-61
2022/01/06 06:29:01;;;;;;;0.77;0.77;;;4.70;99.90;;;;;;5017028;28;20694;-61
2022/01/06 06:31:27;;;;;;;1.00;1.00;;;4.70;99.90;;;;;;5017966;28;20295;-61
2022/01/06 06:33:54;;;;;;;0.70;0.70;;;4.60;99.90;;;;;;5014509;28;20316;-61
2022/01/06 06:36:21;;;;;;;0.87;0.87;;;4.60;99.90;;;;;;5014871;28;20320;-62
2022/01/06 06:38:49;;;;;;;0.95;0.95;;;4.70;99.90;;;;;;5014187;28;20224;-61
2022/01/06 06:41:16;;;;;;;0.90;0.90;;;4.70;99.90;;;;;;5013306;28;20211;-62
2022/01/06 06:43:43;;;;;;;0.80;0.80;;;4.90;99.90;;;;;;5035483;23;21610;-65
2022/01/06 06:46:10;;;;;;;0.70;0.70;;;4.70;99.90;;;;;;5044189;28;20670;-65
2022/01/06 06:48:37;;;;;;;0.90;0.90;;;4.70;99.90;;;;;;5041470;28;20252;-66
2022/01/06 06:51:04;;;;;;;0.80;0.80;;;4.70;99.90;;;;;;5040323;28;20238;-67
2022/01/06 06:53:32;;;;;;;0.90;0.90;;;4.60;99.90;;;;;;5052571;28;20212;-65
2022/01/06 06:56:01;;;;;;;0.80;0.80;;;4.60;99.90;;;;;;5052612;28;20208;-65
2022/01/06 06:58:28;;;;;;;0.90;0.90;;;4.50;99.90;;;;;;5041930;28;20335;-65
2022/01/06 07:00:55;;;;;;;0.80;0.80;;;4.60;99.90;;;;;;5051076;28;20638;-67
2022/01/06 07:03:22;;;;;;;0.90;0.90;;;4.60;99.90;;;;;;5049273;28;20204;-66
2022/01/06 07:05:49;;;;;;;0.80;0.80;;;4.60;99.90;;;;;;5053587;28;20200;-66
2022/01/06 07:08:15;;;;;;;0.82;0.82;;;4.60;99.90;;;;;;5052720;28;20216;-67
2022/01/06 07:10:42;;;;;;;0.70;0.70;;;4.60;99.90;;;;;;5048148;28;20283;-65
2022/01/06 07:13:11;;;;;;;0.83;0.83;;;4.60;99.90;;;;;;5046227;28;20259;-62
2022/01/06 07:15:41;;;;;;;0.70;0.70;;;4.50;99.90;;;;;;5049498;28;20243;-66
2022/01/06 07:18:08;;;;;;;0.80;0.80;;;4.50;99.90;;;;;;5052023;28;20200;-65
2022/01/06 07:20:35;;;;;;;0.70;0.70;;;4.60;99.90;;;;;;5035904;28;20215;-65
2022/01/06 07:23:02;;;;;;;0.70;0.70;;;4.60;99.90;;;;;;5052592;28;20235;-66
2022/01/06 07:25:29;;;;;;;0.82;0.82;;;4.60;99.90;;;;;;5039651;28;20311;-66
2022/01/06 07:27:56;;;;;;;0.80;0.80;;;4.70;99.90;;;;;;5052743;28;20239;-65
2022/01/06 07:30:24;;;;;;;0.90;0.90;;;4.70;99.90;;;;;;5045825;28;20214;-65
2022/01/06 07:32:52;;;;;;;0.93;0.93;;;4.70;99.90;;;;;;5045787;28;20288;-66
2022/01/06 07:35:22;;;;;;;0.85;0.85;;;4.70;99.90;;;;;;5053120;28;20305;-67
2022/01/06 07:37:50;;;;;;;0.90;0.90;;;4.70;99.90;;;;;;5053358;28;20219;-65
2022/01/06 07:40:19;;;;;;;1.00;1.00;;;4.80;99.90;;;;;;5053080;28;20578;-65
2022/01/06 07:42:46;;;;;;;1.10;1.10;;;4.70;99.90;;;;;;5053399;28;20241;-65
2022/01/06 07:45:13;;;;;;;1.13;1.10;;;4.70;99.90;;;;;;5054247;28;20234;-64
2022/01/06 07:47:54;;;;;;;1.57;1.47;;;4.80;99.90;;;;;;5055122;28;20291;-65
2022/01/06 07:50:22;;;;;;;1.50;1.40;;;4.80;99.90;;;;;;5053881;28;20192;-66
2022/01/06 07:52:49;;;;;;;1.10;1.10;;;4.90;99.90;;;;;;5052700;28;20246;-66
2022/01/06 07:55:16;;;;;;;1.20;1.20;;;4.90;99.90;;;;;;5052596;28;20230;-67
2022/01/06 07:57:43;;;;;;;1.10;1.10;;;4.90;99.90;;;;;;5052399;28;20200;-65
2022/01/06 08:00:11;;;;;;;1.20;1.20;;;4.90;99.90;;;;;;5052884;28;20227;-65
2022/01/06 08:02:38;;;;;;;1.10;1.10;;;4.90;99.90;;;;;;5053012;28;20663;-66
2022/01/06 08:05:09;;;;;;;1.40;1.40;;;4.90;99.90;;;;;;5053008;28;20259;-64
2022/01/06 08:07:36;;;;;;;1.40;1.40;;;5.00;99.90;;;;;;5052549;28;20737;-66
2022/01/06 08:10:04;;;;;;;1.10;1.10;;;5.10;99.90;;;;;;5052340;28;20691;-65
2022/01/06 08:12:31;;;;;;;1.10;1.10;;;5.10;99.90;;;;;;5052109;28;20290;-66
2022/01/06 08:14:58;;;;;;;0.90;0.90;;;5.10;99.90;;;;;;5052236;28;20318;-65
2022/01/06 08:17:25;;;;;;;0.90;0.90;;;5.00;99.90;;;;;;5052311;28;20234;-70
2022/01/06 08:19:52;;;;;;;0.80;0.80;;;4.90;99.90;;;;;;5051900;28;20203;-65
2022/01/06 08:22:22;;;;;;;0.73;0.73;;;4.70;99.90;;;;;;5050972;28;20211;-64
2022/01/06 08:24:48;;;;;;;0.70;0.70;;;4.90;99.90;;;;;;5046822;28;20306;-67
2022/01/06 08:27:15;;;;;;;0.93;0.93;;;4.90;99.90;;;;;;5048692;28;20210;-65
2022/01/06 08:29:42;;;;;;;0.93;0.93;;;4.90;99.90;;;;;;5051607;28;20226;-64
2022/01/06 08:32:10;;;;;;;1.00;1.00;;;4.90;99.90;;;;;;5051812;28;20291;-65
2022/01/06 08:34:37;;;;;;;0.88;0.88;;;4.90;99.90;;;;;;5051109;28;20329;-65
2022/01/06 08:37:04;;;;;;;1.00;1.00;;;4.90;99.90;;;;;;5046843;28;20620;-66
2022/01/06 08:39:33;;;;;;;0.80;0.80;;;5.00;99.90;;;;;;5049076;28;20291;-65
2022/01/06 08:41:59;;;;;;;0.90;0.90;;;5.00;99.90;;;;;;5049908;28;20214;-65
2022/01/06 08:44:27;;;;;;;1.10;1.10;;;5.10;99.90;;;;;;5057066;28;20299;-64
2022/01/06 08:46:55;;;;;;;1.00;1.00;;;5.10;99.90;;;;;;5071878;28;20200;-65
2022/01/06 08:49:23;;;;;;;0.98;0.98;;;5.00;99.90;;;;;;5051321;28;20259;-65
2022/01/06 08:51:49;;;;;;;1.00;1.00;;;5.00;99.90;;;;;;5051082;28;20589;-66
2022/01/06 08:54:17;;;;;;;0.88;0.88;;;5.20;99.90;;;;;;5042810;28;20243;-66
2022/01/06 08:56:45;;;;;;;1.00;1.00;;;5.00;99.90;;;;;;5052378;28;20287;-65
2022/01/06 08:59:12;;;;;;;1.00;1.00;;;5.00;99.90;;;;;;5052081;28;20206;-65
2022/01/06 09:01:39;;;;;;;0.93;0.93;;;5.00;99.90;;;;;;5048859;28;20258;-65
2022/01/06 09:04:06;;;;;;;0.90;0.90;;;5.00;99.90;;;;;;5048849;28;20259;-65
2022/01/06 09:06:33;;;;;;;0.90;0.90;;;5.10;99.90;;;;;;5057749;28;20647;-64
2022/01/06 09:09:00;;;;;;;0.80;0.80;;;5.10;99.90;;;;;;5057809;28;20231;-65
2022/01/06 09:11:27;;;;;;;0.90;0.90;;;5.20;99.90;;;;;;5053802;28;20222;-66
2022/01/06 09:13:55;;;;;;;0.90;0.90;;;5.20;99.90;;;;;;5051038;28;20247;-65
2022/01/06 09:16:23;;;;;;;0.93;0.93;;;5.20;99.90;;;;;;5051947;28;20199;-66
2022/01/06 09:18:50;;;;;;;1.00;1.00;;;5.10;99.90;;;;;;5051829;28;20193;-67
2022/01/06 09:21:22;;;;;;;1.00;1.00;;;5.20;99.90;;;;;;5054520;28;20239;-64
2022/01/06 09:23:49;;;;;;;0.90;0.90;;;5.20;99.90;;;;;;5054495;28;20350;-65
2022/01/06 09:26:16;;;;;;;1.00;1.00;;;5.20;99.90;;;;;;5054948;28;20196;-65
2022/01/06 09:28:43;;;;;;;1.02;1.02;;;5.20;99.90;;;;;;5058182;28;20724;-65
2022/01/06 09:31:11;;;;;;;1.20;1.20;;;5.20;99.90;;;;;;5054192;28;20649;-65
2022/01/06 09:33:38;;;;;;;1.07;1.07;;;5.20;99.90;;;;;;5054882;28;20266;-65
2022/01/06 09:36:05;;;;;;;1.10;1.10;;;5.30;99.90;;;;;;5039740;28;20317;-66
2022/01/06 09:38:32;;;;;;;1.00;1.00;;;5.20;99.90;;;;;;5034794;28;20279;-64
2022/01/06 09:41:05;;;;;;;1.00;1.00;;;5.30;99.90;;;;;;5034630;28;20684;-64
2022/01/06 09:43:34;;;;;;;1.00;1.00;;;5.30;99.90;;;;;;5035185;28;20204;-64
2022/01/06 09:46:03;;;;;;;1.07;1.07;;;5.30;99.90;;;;;;5035382;28;20211;-65
2022/01/06 09:48:32;;;;;;;1.23;1.23;;;5.40;99.90;;;;;;5047249;28;20211;-67
2022/01/06 09:50:58;;;;;;;1.00;1.00;;;5.30;99.90;;;;;;5061863;28;20203;-64
2022/01/06 09:53:27;;;;;;;1.10;1.10;;;5.30;99.90;;;;;;5061130;28;20639;-66
2022/01/06 09:55:54;;;;;;;1.30;1.30;;;5.50;99.90;;;;;;5058737;28;20207;-67
2022/01/06 09:58:24;;;;;;;1.05;1.05;;;5.40;99.90;;;;;;5057649;28;20235;-66
2022/01/06 10:00:52;;;;;;;1.10;1.10;;;5.40;99.90;;;;;;5053817;28;20656;-66
2022/01/06 10:03:20;;;;;;;1.50;1.40;;;5.40;99.90;;;;;;5051660;28;20671;-66
2022/01/06 10:05:50;;;;;;;1.10;1.10;;;5.40;99.90;;;;;;5061535;28;20192;-66
2022/01/06 10:08:28;;;;;;;1.13;1.13;;;5.50;99.90;;;;;;5070741;28;20264;-64
2022/01/06 10:11:12;;;;;;;1.10;1.10;;;5.50;99.90;;;;;;5053784;28;20573;-65
2022/01/06 10:13:40;;;;;;;1.10;1.10;;;5.60;99.90;;;;;;5051069;28;20220;-65
2022/01/06 10:16:18;;;;;;;1.40;1.40;;;5.70;99.90;;;;;;5051269;28;20731;-65
2022/01/06 10:19:00;;;;;;;1.50;1.40;;;5.70;99.90;;;;;;5052518;28;20282;-66
2022/01/06 10:21:31;;;;;;;1.25;1.25;;;5.80;99.90;;;;;;5052561;28;20208;-66
2022/01/06 10:24:04;;;;;;;1.10;1.10;;;5.80;99.90;;;;;;5052627;28;20243;-65
2022/01/06 10:26:31;;;;;;;1.40;1.40;;;5.80;99.90;;;;;;5050403;28;20212;-64
2022/01/06 10:28:58;;;;;;;1.80;1.70;;;5.80;99.90;;;;;;5052761;28;20207;-66
2022/01/06 10:31:27;;;;;;;1.40;1.40;;;5.90;99.90;;;;;;5052618;28;20294;-65
2022/01/06 10:33:54;;;;;;;1.40;1.40;;;5.80;99.90;;;;;;5049573;28;20653;-66
2022/01/06 10:36:31;;;;;;;1.40;1.40;;;5.80;99.90;;;;;;5049176;28;20310;-65
2022/01/06 10:39:00;;;;;;;1.50;1.50;;;5.90;99.90;;;;;;5053321;28;20203;-65
2022/01/06 10:41:28;;;;;;;1.43;1.40;;;5.80;99.90;;;;;;5054293;28;20208;-65
2022/01/06 10:43:57;;;;;;;1.63;1.53;;;5.80;99.90;;;;;;5054643;28;20338;-64
2022/01/06 10:46:32;;;;;;;1.40;1.40;;;5.90;99.90;;;;;;5053089;28;20224;-65
2022/01/06 10:49:00;;;;;;;1.40;1.40;;;5.90;99.90;;;;;;5054747;28;20195;-64
2022/01/06 10:51:40;;;;;;;1.40;1.33;;;5.90;99.90;;;;;;5051624;28;20258;-64
2022/01/06 10:54:16;;;;;;;1.90;1.80;;;5.90;99.90;;;;;;5052379;28;20241;-64
2022/01/06 10:56:55;;;;;;;1.70;1.60;;;5.90;99.90;;;;;;5050102;28;20671;-66
2022/01/06 10:59:25;;;;;;;1.30;1.30;;;6.00;99.90;;;;;;5051630;28;20198;-66
2022/01/06 11:01:53;;;;;;;1.37;1.37;;;6.00;99.90;;;;;;5049646;28;20637;-65
2022/01/06 11:04:20;;;;;;;1.70;1.60;;;6.00;99.90;;;;;;5052289;28;20223;-65
2022/01/06 11:06:50;;;;;;;1.50;1.50;;;6.10;99.90;;;;;;5052904;28;20196;-65
2022/01/06 11:09:17;;;;;;;1.90;1.80;;;6.10;99.90;;;;;;5059192;28;20205;-64
2022/01/06 11:12:26;;;;;;;2.17;1.90;;;6.10;99.90;;;;;;5060757;28;20208;-66
2022/01/06 11:14:33;;;;;;;1.60;1.50;;;6.00;99.90;;;;;;5062029;28;20226;-65
2022/01/06 11:17:00;;;;;;;1.73;1.63;;;6.00;99.90;;;;;;5062238;28;20219;-66
2022/01/06 11:19:29;;;;;;;1.57;1.47;;;5.90;99.90;;;;;;5056600;28;20197;-65
2022/01/06 11:22:02;;;;;;;1.43;1.43;;;5.90;99.90;;;;;;5048883;28;20204;-64
2022/01/06 11:24:29;;;;;;;1.40;1.38;;;6.00;99.90;;;;;;5055490;28;20224;-65
2022/01/06 11:27:02;;;;;;;1.60;1.50;;;6.00;99.90;;;;;;5050570;28;20287;-66
2022/01/06 11:29:32;;;;;;;1.60;1.50;;;6.20;99.90;;;;;;5056266;28;20227;-65
2022/01/06 11:32:00;;;;;;;1.70;1.60;;;6.20;99.90;;;;;;5048312;28;20203;-65
2022/01/06 11:34:30;;;;;;;1.73;1.63;;;6.30;99.90;;;;;;5045508;28;20598;-64
2022/01/06 11:37:08;;;;;;;1.70;1.60;;;6.30;99.90;;;;;;5054552;28;20723;-65
2022/01/06 11:39:35;;;;;;;1.67;1.58;;;6.40;99.90;;;;;;5049910;28;20195;-64
2022/01/06 11:42:14;;;;;;;1.60;1.50;;;6.40;99.90;;;;;;5051048;28;20208;-65
2022/01/06 11:44:50;;;;;;;1.63;1.53;;;6.40;99.90;;;;;;5050733;28;20232;-64
2022/01/06 11:47:28;;;;;;;1.60;1.50;;;6.40;99.90;;;;;;5054289;28;20273;-65
2022/01/06 11:50:05;;;;;;;1.42;1.40;;;6.50;99.90;;;;;;5050838;28;20207;-65
2022/01/06 11:52:34;;;;;;;2.00;1.90;;;6.30;99.90;;;;;;5051893;28;20204;-64
2022/01/06 11:55:12;;;;;;;1.90;1.80;;;6.40;99.90;;;;;;5053551;28;20639;-65
2022/01/06 11:57:40;;;;;;;1.90;1.80;;;6.60;99.90;;;;;;5054442;28;20196;-65
2022/01/06 12:00:16;;;;;;;1.47;1.37;;;6.70;99.90;;;;;;5051524;28;20687;-66
2022/01/06 12:02:45;;;;;;;1.50;1.40;;;6.70;99.90;;;;;;5047323;28;20199;-65
2022/01/06 12:05:13;;;;;;;1.50;1.40;;;6.90;99.90;;;;;;5048737;28;20291;-64
2022/01/06 12:07:51;;;;;;;1.55;1.45;;;7.10;99.90;;;;;;5045420;28;20704;-65
2022/01/06 12:10:20;;;;;;;1.50;1.40;;;7.20;99.90;;;;;;5038785;28;20220;-65
2022/01/06 12:12:50;;;;;;;1.70;1.60;;;7.20;99.90;;;;;;5054218;28;20246;-65
2022/01/06 12:15:18;;;;;;;1.55;1.45;;;7.20;99.90;;;;;;5055619;28;20226;-65
2022/01/06 12:17:48;;;;;;;1.70;1.60;;;7.20;99.90;;;;;;5055263;28;20576;-65
2022/01/06 12:20:20;;;;;;;1.43;1.37;;;7.20;99.90;;;;;;5051194;28;20215;-65
2022/01/06 12:22:48;;;;;;;1.73;1.63;;;7.10;99.90;;;;;;5054927;28;20196;-65
2022/01/06 12:25:17;;;;;;;1.40;1.30;;;7.10;99.90;;;;;;5056305;28;20225;-65
2022/01/06 12:27:49;;;;;;;1.50;1.40;;;7.10;99.90;;;;;;5056550;28;20204;-64
2022/01/06 12:30:18;;;;;;;1.60;1.50;;;7.10;99.90;;;;;;5054795;28;20262;-65
2022/01/06 12:32:56;;;;;;;1.43;1.33;;;7.10;99.90;;;;;;5051332;28;20231;-65
2022/01/06 12:35:36;;;;;;;1.40;1.30;;;7.10;99.90;;;;;;5065437;28;20219;-65
2022/01/06 12:38:03;;;;;;;1.80;1.70;;;7.20;99.90;;;;;;5065756;28;20204;-65
2022/01/06 12:40:36;;;;;;;1.60;1.50;;;7.20;99.90;;;;;;5069154;28;20200;-64
2022/01/06 12:43:15;;;;;;;1.52;1.42;;;7.20;99.90;;;;;;5065374;28;20208;-65
2022/01/06 12:45:42;;;;;;;1.60;1.50;;;7.10;99.90;;;;;;5056667;28;20224;-64
2022/01/06 12:48:08;;;;;;;1.60;1.50;;;7.10;99.90;;;;;;5056349;28;20207;-63
2022/01/06 12:50:47;;;;;;;1.70;1.60;;;7.00;99.90;;;;;;5050833;28;20227;-67
2022/01/06 12:53:25;;;;;;;1.67;1.57;;;7.10;99.90;;;;;;5051174;28;20203;-64
2022/01/06 12:55:53;;;;;;;2.10;1.73;;;7.10;99.90;;;;;;5053457;28;20294;-64
2022/01/06 12:58:28;;;;;;;1.70;1.60;;;7.00;99.90;;;;;;5062892;28;20218;-64
2022/01/06 13:00:56;;;;;;;1.93;1.83;;;7.20;99.90;;;;;;5072653;28;20195;-64
2022/01/06 13:03:31;;;;;;;1.80;1.70;;;7.00;99.90;;;;;;5070541;28;20204;-63
2022/01/06 13:06:00;;;;;;;1.73;1.63;;;6.90;99.90;;;;;;5057300;28;20227;-65
2022/01/06 13:08:30;;;;;;;1.60;1.50;;;6.90;99.90;;;;;;5051618;28;20207;-64
2022/01/06 13:11:08;;;;;;;2.08;1.88;;;6.80;99.90;;;;;;5049004;28;20219;-65